sensor_id;sensor_type;location;lat;lon;timestamp;pressure;altitude;pressure_sealevel;temperature;humidity
41312;BME280;27061;41.648;24.568;2024-03-08T00:00:19;85522.47;;;4.78;76.83
41312;BME280;27061;41.648;24.568;2024-03-08T00:02:47;85541.66;;;4.78;77.47
41312;BME280;27061;41.648;24.568;2024-03-08T00:05:15;85573.28;;;5.07;77.61
41312;BME280;27061;41.648;24.568;2024-03-08T00:07:42;85567.78;;;5.07;77.37
41312;BME280;27061;41.648;24.568;2024-03-08T00:10:13;85367.41;;;3.67;77.01
41312;BME280;27061;41.648;24.568;2024-03-08T00:12:43;85421.63;;;4.10;76.08
41312;BME280;27061;41.648;24.568;2024-03-08T00:15:14;85471.66;;;4.22;76.04
41312;BME280;27061;41.648;24.568;2024-03-08T00:17:44;85559.50;;;4.81;76.82
41312;BME280;27061;41.648;24.568;2024-03-08T00:20:12;85477.13;;;4.24;76.90
41312;BME280;27061;41.648;24.568;2024-03-08T00:22:41;85470.91;;;4.05;77.00
41312;BME280;27061;41.648;24.568;2024-03-08T00:25:09;85376.84;;;3.26;77.43
41312;BME280;27061;41.648;24.568;2024-03-08T00:27:37;85529.28;;;4.53;77.31
41312;BME280;27061;41.648;24.568;2024-03-08T00:30:06;85559.47;;;4.69;77.55
41312;BME280;27061;41.648;24.568;2024-03-08T00:32:34;85428.34;;;3.70;77.52
41312;BME280;27061;41.648;24.568;2024-03-08T00:35:02;85571.16;;;4.75;78.00
41312;BME280;27061;41.648;24.568;2024-03-08T00:37:35;85574.56;;;4.70;77.85
41312;BME280;27061;41.648;24.568;2024-03-08T00:40:06;85407.06;;;3.48;77.66
41312;BME280;27061;41.648;24.568;2024-03-08T00:42:36;85485.28;;;4.02;74.98
41312;BME280;27061;41.648;24.568;2024-03-08T00:45:08;85483.94;;;4.11;75.85
41312;BME280;27061;41.648;24.568;2024-03-08T00:47:38;85421.47;;;3.59;76.38
41312;BME280;27061;41.648;24.568;2024-03-08T00:50:06;85571.81;;;4.70;75.59
41312;BME280;27061;41.648;24.568;2024-03-08T00:52:36;85570.44;;;4.65;75.79
41312;BME280;27061;41.648;24.568;2024-03-08T00:55:04;85570.41;;;4.59;73.99
41312;BME280;27061;41.648;24.568;2024-03-08T00:57:32;85545.63;;;4.24;75.14
41312;BME280;27061;41.648;24.568;2024-03-08T01:00:02;85507.84;;;3.96;76.50
41312;BME280;27061;41.648;24.568;2024-03-08T01:02:30;85472.88;;;3.83;76.81
41312;BME280;27061;41.648;24.568;2024-03-08T01:04:57;85386.28;;;2.99;76.85
41312;BME280;27061;41.648;24.568;2024-03-08T01:07:25;85549.06;;;4.35;76.42
41312;BME280;27061;41.648;24.568;2024-03-08T01:09:52;85509.94;;;4.02;76.31
41312;BME280;27061;41.648;24.568;2024-03-08T01:12:19;85450.16;;;3.54;75.84
41312;BME280;27061;41.648;24.568;2024-03-08T01:14:47;85509.94;;;4.08;74.48
41312;BME280;27061;41.648;24.568;2024-03-08T01:17:15;85545.63;;;4.26;75.89
41312;BME280;27061;41.648;24.568;2024-03-08T01:19:46;85463.19;;;3.55;76.48
41312;BME280;27061;41.648;24.568;2024-03-08T01:22:13;85533.28;;;4.21;75.40
41312;BME280;27061;41.648;24.568;2024-03-08T01:24:41;85413.78;;;3.27;75.92
41312;BME280;27061;41.648;24.568;2024-03-08T01:27:08;85529.09;;;4.04;76.87
41312;BME280;27061;41.648;24.568;2024-03-08T01:29:36;85511.28;;;3.99;77.53
41312;BME280;27061;41.648;24.568;2024-03-08T01:32:04;85586.78;;;4.32;77.94
41312;BME280;27061;41.648;24.568;2024-03-08T01:34:33;85341.72;;;2.72;77.98
41312;BME280;27061;41.648;24.568;2024-03-08T01:37:00;85408.25;;;3.15;78.33
41312;BME280;27061;41.648;24.568;2024-03-08T01:39:28;85563.47;;;4.37;78.43
41312;BME280;27061;41.648;24.568;2024-03-08T01:41:55;85545.59;;;4.16;78.70
41312;BME280;27061;41.648;24.568;2024-03-08T01:44:22;85542.88;;;4.18;78.69
41312;BME280;27061;41.648;24.568;2024-03-08T01:46:52;85480.38;;;3.74;78.81
41312;BME280;27061;41.648;24.568;2024-03-08T01:49:21;85522.94;;;4.03;78.90
41312;BME280;27061;41.648;24.568;2024-03-08T01:51:49;85553.16;;;4.22;78.87
41312;BME280;27061;41.648;24.568;2024-03-08T01:54:18;85555.19;;;4.19;79.01
41312;BME280;27061;41.648;24.568;2024-03-08T01:56:47;85456.28;;;3.50;78.91
41312;BME280;27061;41.648;24.568;2024-03-08T01:59:15;85516.06;;;3.94;78.81
41312;BME280;27061;41.648;24.568;2024-03-08T02:01:43;85525.69;;;4.01;78.61
41312;BME280;27061;41.648;24.568;2024-03-08T02:04:11;85549.06;;;4.23;78.41
41312;BME280;27061;41.648;24.568;2024-03-08T02:06:38;85547.03;;;4.31;78.59
41312;BME280;27061;41.648;24.568;2024-03-08T02:09:06;85509.91;;;4.00;78.50
41312;BME280;27061;41.648;24.568;2024-03-08T02:11:35;85435.09;;;3.47;78.30
41312;BME280;27061;41.648;24.568;2024-03-08T02:14:04;85530.50;;;4.09;77.67
41312;BME280;27061;41.648;24.568;2024-03-08T02:16:33;85566.22;;;4.35;77.88
41312;BME280;27061;41.648;24.568;2024-03-08T02:19:01;85562.13;;;4.43;77.58
41312;BME280;27061;41.648;24.568;2024-03-08T02:21:29;85565.59;;;4.53;77.45
41312;BME280;27061;41.648;24.568;2024-03-08T02:23:56;85512.69;;;4.08;77.06
41312;BME280;27061;41.648;24.568;2024-03-08T02:26:24;85500.31;;;3.91;77.44
41312;BME280;27061;41.648;24.568;2024-03-08T02:28:51;85564.19;;;4.42;78.01
41312;BME280;27061;41.648;24.568;2024-03-08T02:31:19;85552.53;;;4.37;77.61
41312;BME280;27061;41.648;24.568;2024-03-08T02:33:49;85510.63;;;4.02;77.72
41312;BME280;27061;41.648;24.568;2024-03-08T02:36:16;85528.47;;;4.16;77.74
41312;BME280;27061;41.648;24.568;2024-03-08T02:38:44;85500.34;;;3.99;77.76
41312;BME280;27061;41.648;24.568;2024-03-08T02:41:11;85497.59;;;3.99;77.90
41312;BME280;27061;41.648;24.568;2024-03-08T02:43:39;85564.88;;;4.47;77.95
41312;BME280;27061;41.648;24.568;2024-03-08T02:46:06;85542.91;;;4.30;77.88
41312;BME280;27061;41.648;24.568;2024-03-08T02:48:34;85374.06;;;3.14;78.00
41312;BME280;27061;41.648;24.568;2024-03-08T02:51:02;85566.28;;;4.56;77.96
41312;BME280;27061;41.648;24.568;2024-03-08T02:53:30;85455.66;;;3.62;78.30
41312;BME280;27061;41.648;24.568;2024-03-08T02:55:57;85575.91;;;4.55;78.49
41312;BME280;27061;41.648;24.568;2024-03-08T02:58:25;85541.53;;;4.27;78.66
41312;BME280;27061;41.648;24.568;2024-03-08T03:00:52;85564.91;;;4.57;78.63
41312;BME280;27061;41.648;24.568;2024-03-08T03:03:20;85571.78;;;4.60;78.42
41312;BME280;27061;41.648;24.568;2024-03-08T03:05:47;85498.94;;;3.96;78.34
41312;BME280;27061;41.648;24.568;2024-03-08T03:08:15;85570.41;;;4.55;78.52
41312;BME280;27061;41.648;24.568;2024-03-08T03:10:44;85466.72;;;3.80;77.99
41312;BME280;27061;41.648;24.568;2024-03-08T03:13:13;85569.72;;;4.54;78.22
41312;BME280;27061;41.648;24.568;2024-03-08T03:15:41;85575.91;;;4.55;78.23
41312;BME280;27061;41.648;24.568;2024-03-08T03:18:09;85537.44;;;4.34;78.38
41312;BME280;27061;41.648;24.568;2024-03-08T03:20:37;85544.31;;;4.39;77.85
41312;BME280;27061;41.648;24.568;2024-03-08T03:23:09;85552.53;;;4.46;77.90
41312;BME280;27061;41.648;24.568;2024-03-08T03:25:36;85545.66;;;4.30;78.13
41312;BME280;27061;41.648;24.568;2024-03-08T03:28:06;85524.38;;;4.25;78.32
41312;BME280;27061;41.648;24.568;2024-03-08T03:30:35;85547.03;;;4.37;78.41
41312;BME280;27061;41.648;24.568;2024-03-08T03:33:02;85510.66;;;4.11;78.41
41312;BME280;27061;41.648;24.568;2024-03-08T03:35:35;85375.41;;;3.13;78.16
41312;BME280;27061;41.648;24.568;2024-03-08T03:38:04;85530.56;;;4.29;78.40
41312;BME280;27061;41.648;24.568;2024-03-08T03:40:38;85575.88;;;4.59;78.68
41312;BME280;27061;41.648;24.568;2024-03-08T03:43:06;85534.69;;;4.30;78.48
41312;BME280;27061;41.648;24.568;2024-03-08T03:45:35;85525.09;;;4.23;78.28
41312;BME280;27061;41.648;24.568;2024-03-08T03:48:05;85577.25;;;4.60;78.07
41312;BME280;27061;41.648;24.568;2024-03-08T03:50:38;85431.69;;;3.52;77.61
41312;BME280;27061;41.648;24.568;2024-03-08T03:53:07;85415.88;;;3.37;77.20
41312;BME280;27061;41.648;24.568;2024-03-08T03:55:37;85562.81;;;4.41;77.81
41312;BME280;27061;41.648;24.568;2024-03-08T03:58:08;85352.75;;;2.90;77.67
41312;BME280;27061;41.648;24.568;2024-03-08T04:00:38;85509.97;;;4.14;77.98
41312;BME280;27061;41.648;24.568;2024-03-08T04:03:06;85448.81;;;3.57;77.78
41312;BME280;27061;41.648;24.568;2024-03-08T04:05:35;85571.75;;;4.48;78.20
41312;BME280;27061;41.648;24.568;2024-03-08T04:08:02;85455.03;;;3.72;77.96
41312;BME280;27061;41.648;24.568;2024-03-08T04:10:32;85509.97;;;4.10;78.32
41312;BME280;27061;41.648;24.568;2024-03-08T04:13:00;85541.53;;;4.31;78.29
41312;BME280;27061;41.648;24.568;2024-03-08T04:15:27;85494.81;;;3.95;78.09
41312;BME280;27061;41.648;24.568;2024-03-08T04:17:55;85537.41;;;4.26;77.84
41312;BME280;27061;41.648;24.568;2024-03-08T04:20:22;85560.06;;;4.39;77.85
41312;BME280;27061;41.648;24.568;2024-03-08T04:22:50;85471.44;;;3.72;77.61
41312;BME280;27061;41.648;24.568;2024-03-08T04:25:17;85541.53;;;4.31;77.14
41312;BME280;27061;41.648;24.568;2024-03-08T04:27:48;85435.09;;;3.51;77.42
41312;BME280;27061;41.648;24.568;2024-03-08T04:30:16;85564.16;;;4.34;77.65
41312;BME280;27061;41.648;24.568;2024-03-08T04:32:44;85515.44;;;4.10;77.39
41312;BME280;27061;41.648;24.568;2024-03-08T04:35:11;85397.25;;;3.03;77.31
41312;BME280;27061;41.648;24.568;2024-03-08T04:37:40;85567.59;;;4.32;76.98
41312;BME280;27061;41.648;24.568;2024-03-08T04:40:07;85545.63;;;4.24;77.06
41312;BME280;27061;41.648;24.568;2024-03-08T04:42:37;85500.25;;;3.79;76.47
41312;BME280;27061;41.648;24.568;2024-03-08T04:45:05;85556.59;;;4.22;76.58
41312;BME280;27061;41.648;24.568;2024-03-08T04:47:32;85568.94;;;4.27;77.42
41312;BME280;27061;41.648;24.568;2024-03-08T04:50:00;85450.81;;;3.44;77.32
41312;BME280;27061;41.648;24.568;2024-03-08T04:52:27;85551.06;;;4.14;77.32
41312;BME280;27061;41.648;24.568;2024-03-08T04:54:55;85524.94;;;3.93;77.39
41312;BME280;27061;41.648;24.568;2024-03-08T04:57:23;85535.94;;;4.03;77.57
41312;BME280;27061;41.648;24.568;2024-03-08T04:59:50;85501.56;;;3.72;78.12
41312;BME280;27061;41.648;24.568;2024-03-08T05:02:17;85399.94;;;2.92;78.02
41312;BME280;27061;41.648;24.568;2024-03-08T05:04:48;85567.53;;;4.18;78.15
41312;BME280;27061;41.648;24.568;2024-03-08T05:07:15;85551.03;;;4.02;76.44
41312;BME280;27061;41.648;24.568;2024-03-08T05:09:43;85552.44;;;4.11;76.50
41312;BME280;27061;41.648;24.568;2024-03-08T05:12:10;85563.41;;;4.13;76.83
41312;BME280;27061;41.648;24.568;2024-03-08T05:14:38;85500.81;;;3.57;77.39
41312;BME280;27061;41.648;24.568;2024-03-08T05:17:06;85579.81;;;4.11;77.52
41312;BME280;27061;41.648;24.568;2024-03-08T05:19:34;85618.31;;;4.39;77.60
41312;BME280;27061;41.648;24.568;2024-03-08T05:22:03;85550.91;;;3.82;77.73
41312;BME280;27061;41.648;24.568;2024-03-08T05:24:31;85627.88;;;4.34;77.95
41312;BME280;27061;41.648;24.568;2024-03-08T05:27:02;85563.94;;;3.87;78.13
41312;BME280;27061;41.648;24.568;2024-03-08T05:29:30;85630.59;;;4.30;78.09
41312;BME280;27061;41.648;24.568;2024-03-08T05:32:00;85585.25;;;3.99;78.14
41312;BME280;27061;41.648;24.568;2024-03-08T05:34:29;85438.16;;;2.88;78.14
41312;BME280;27061;41.648;24.568;2024-03-08T05:36:57;85631.28;;;4.35;77.89
41312;BME280;27061;41.648;24.568;2024-03-08T05:39:25;85622.34;;;4.20;78.20
41312;BME280;27061;41.648;24.568;2024-03-08T05:41:53;85585.22;;;3.97;78.61
41312;BME280;27061;41.648;24.568;2024-03-08T05:44:22;85526.09;;;3.51;78.76
41312;BME280;27061;41.648;24.568;2024-03-08T05:46:49;85608.56;;;4.06;77.98
41312;BME280;27061;41.648;24.568;2024-03-08T05:49:17;85556.34;;;3.74;76.53
41312;BME280;27061;41.648;24.568;2024-03-08T05:51:45;85607.19;;;4.07;76.76
41312;BME280;27061;41.648;24.568;2024-03-08T05:54:14;85628.44;;;4.09;77.29
41312;BME280;27061;41.648;24.568;2024-03-08T05:56:45;85627.78;;;4.12;77.51
41312;BME280;27061;41.648;24.568;2024-03-08T05:59:14;85611.22;;;3.92;77.14
41312;BME280;27061;41.648;24.568;2024-03-08T06:01:42;85616.06;;;4.03;77.14
41312;BME280;27061;41.648;24.568;2024-03-08T06:04:09;85480.56;;;2.91;77.10
41312;BME280;27061;41.648;24.568;2024-03-08T06:06:39;85603.00;;;3.90;76.98
41312;BME280;27061;41.648;24.568;2024-03-08T06:09:07;85671.72;;;4.34;77.40
41312;BME280;27061;41.648;24.568;2024-03-08T06:11:52;85667.63;;;4.37;77.45
41312;BME280;27061;41.648;24.568;2024-03-08T06:14:21;85628.44;;;4.09;77.67
41312;BME280;27061;41.648;24.568;2024-03-08T06:16:49;85587.84;;;3.75;76.83
41312;BME280;27061;41.648;24.568;2024-03-08T06:19:19;85657.28;;;4.22;76.96
41312;BME280;27061;41.648;24.568;2024-03-08T06:21:46;85621.53;;;3.99;77.05
41312;BME280;27061;41.648;24.568;2024-03-08T06:24:14;85680.66;;;4.39;76.84
41312;BME280;27061;41.648;24.568;2024-03-08T06:26:42;85656.59;;;4.23;77.16
41312;BME280;27061;41.648;24.568;2024-03-08T06:29:10;85602.91;;;3.78;76.54
41312;BME280;27061;41.648;24.568;2024-03-08T06:31:37;85635.28;;;4.08;76.91
41312;BME280;27061;41.648;24.568;2024-03-08T06:34:08;85445.53;;;2.66;76.74
41312;BME280;27061;41.648;24.568;2024-03-08T06:36:36;85670.41;;;4.41;76.30
41312;BME280;27061;41.648;24.568;2024-03-08T06:39:06;85643.56;;;4.24;75.80
41312;BME280;27061;41.648;24.568;2024-03-08T06:41:37;85647.00;;;4.22;75.36
41312;BME280;27061;41.648;24.568;2024-03-08T06:44:05;85583.72;;;3.76;75.64
41312;BME280;27061;41.648;24.568;2024-03-08T06:46:34;85661.44;;;4.31;75.40
41312;BME280;27061;41.648;24.568;2024-03-08T06:49:01;85643.56;;;4.20;76.20
41312;BME280;27061;41.648;24.568;2024-03-08T06:51:30;85462.06;;;2.82;75.55
41312;BME280;27061;41.648;24.568;2024-03-08T06:53:58;85477.19;;;2.93;73.96
41312;BME280;27061;41.648;24.568;2024-03-08T06:56:25;85677.97;;;4.47;73.73
41312;BME280;27061;41.648;24.568;2024-03-08T06:58:52;85625.72;;;4.15;74.14
41312;BME280;27061;41.648;24.568;2024-03-08T07:01:20;85680.00;;;4.40;73.40
41312;BME280;27061;41.648;24.568;2024-03-08T07:03:48;85674.47;;;4.34;74.43
41312;BME280;27061;41.648;24.568;2024-03-08T07:06:15;85652.50;;;4.22;75.14
41312;BME280;27061;41.648;24.568;2024-03-08T07:08:44;85656.59;;;4.21;75.58
41312;BME280;27061;41.648;24.568;2024-03-08T07:11:13;85667.63;;;4.33;76.32
41312;BME280;27061;41.648;24.568;2024-03-08T07:13:42;85649.75;;;4.24;76.43
41312;BME280;27061;41.648;24.568;2024-03-08T07:16:09;85616.78;;;4.08;76.41
41312;BME280;27061;41.648;24.568;2024-03-08T07:18:38;85704.81;;;4.77;76.22
41312;BME280;27061;41.648;24.568;2024-03-08T07:21:10;85651.19;;;4.37;76.26
41312;BME280;27061;41.648;24.568;2024-03-08T07:23:38;85651.22;;;4.44;76.66
41312;BME280;27061;41.648;24.568;2024-03-08T07:26:34;85703.50;;;4.88;76.84
41312;BME280;27061;41.648;24.568;2024-03-08T07:29:01;85703.53;;;4.90;77.57
41312;BME280;27061;41.648;24.568;2024-03-08T07:31:28;85706.25;;;4.90;77.83
41312;BME280;27061;41.648;24.568;2024-03-08T07:34:12;85709.00;;;4.90;75.31
41312;BME280;27061;41.648;24.568;2024-03-08T07:36:39;85668.41;;;4.58;77.58
41312;BME280;27061;41.648;24.568;2024-03-08T07:39:06;85680.72;;;4.51;78.78
41312;BME280;27061;41.648;24.568;2024-03-08T07:41:39;85690.38;;;4.66;78.54
41312;BME280;27061;41.648;24.568;2024-03-08T07:44:09;85662.28;;;4.64;78.63
41312;BME280;27061;41.648;24.568;2024-03-08T07:46:37;85604.56;;;4.27;78.82
41312;BME280;27061;41.648;24.568;2024-03-08T07:49:05;85675.38;;;4.88;77.52
41312;BME280;27061;41.648;24.568;2024-03-08T07:51:33;85669.16;;;4.69;75.75
41312;BME280;27061;41.648;24.568;2024-03-08T07:54:02;85713.22;;;5.20;76.64
41312;BME280;27061;41.648;24.568;2024-03-08T07:56:32;85711.19;;;5.22;74.75
41312;BME280;27061;41.648;24.568;2024-03-08T07:58:59;85667.91;;;5.02;74.38
41312;BME280;27061;41.648;24.568;2024-03-08T08:01:26;85657.59;;;4.95;71.23
41312;BME280;27061;41.648;24.568;2024-03-08T08:03:54;85615.59;;;4.48;75.29
41312;BME280;27061;41.648;24.568;2024-03-08T08:06:22;85645.19;;;4.75;75.81
41312;BME280;27061;41.648;24.568;2024-03-08T08:08:52;85537.28;;;3.94;75.77
41312;BME280;27061;41.648;24.568;2024-03-08T08:11:28;85643.13;;;4.80;75.28
41312;BME280;27061;41.648;24.568;2024-03-08T08:13:58;85695.44;;;5.27;71.84
41312;BME280;27061;41.648;24.568;2024-03-08T08:16:26;85608.78;;;4.53;71.50
41312;BME280;27061;41.648;24.568;2024-03-08T08:18:54;85649.31;;;4.76;71.97
41312;BME280;27061;41.648;24.568;2024-03-08T08:21:21;85699.47;;;5.05;72.69
41312;BME280;27061;41.648;24.568;2024-03-08T08:23:49;85673.38;;;4.94;73.88
41312;BME280;27061;41.648;24.568;2024-03-08T08:26:16;85710.50;;;5.18;76.24
41312;BME280;27061;41.648;24.568;2024-03-08T08:28:44;85649.97;;;4.77;77.03
41312;BME280;27061;41.648;24.568;2024-03-08T08:31:13;85720.81;;;5.29;78.69
41312;BME280;27061;41.648;24.568;2024-03-08T08:33:40;85667.81;;;4.78;78.16
41312;BME280;27061;41.648;24.568;2024-03-08T08:36:08;85724.94;;;5.26;77.24
41312;BME280;27061;41.648;24.568;2024-03-08T08:38:36;85685.06;;;5.07;77.45
41312;BME280;27061;41.648;24.568;2024-03-08T08:41:05;85626.59;;;4.58;77.62
41312;BME280;27061;41.648;24.568;2024-03-08T08:43:33;85713.25;;;5.18;77.64
41312;BME280;27061;41.648;24.568;2024-03-08T08:46:01;85672.66;;;4.90;77.13
41312;BME280;27061;41.648;24.568;2024-03-08T08:48:29;85553.00;;;3.93;77.98
41312;BME280;27061;41.648;24.568;2024-03-08T08:50:57;85704.28;;;5.09;77.52
41312;BME280;27061;41.648;24.568;2024-03-08T08:53:24;85664.41;;;4.75;79.57
41312;BME280;27061;41.648;24.568;2024-03-08T08:55:52;85629.25;;;4.31;77.38
41312;BME280;27061;41.648;24.568;2024-03-08T08:58:20;85693.94;;;4.87;77.64
41312;BME280;27061;41.648;24.568;2024-03-08T09:00:48;85671.88;;;4.69;79.33
41312;BME280;27061;41.648;24.568;2024-03-08T09:03:16;85679.47;;;4.74;77.17
41312;BME280;27061;41.648;24.568;2024-03-08T09:05:44;85680.09;;;4.67;78.81
41312;BME280;27061;41.648;24.568;2024-03-08T09:08:12;85657.44;;;4.54;78.60
41312;BME280;27061;41.648;24.568;2024-03-08T09:10:40;85724.19;;;5.11;79.05
41312;BME280;27061;41.648;24.568;2024-03-08T09:13:08;85697.34;;;4.92;80.49
41312;BME280;27061;41.648;24.568;2024-03-08T09:15:44;85734.47;;;5.11;80.91
41312;BME280;27061;41.648;24.568;2024-03-08T09:18:11;85637.59;;;4.60;76.50
41312;BME280;27061;41.648;24.568;2024-03-08T09:20:39;85665.69;;;4.60;77.16
41312;BME280;27061;41.648;24.568;2024-03-08T09:23:08;85689.00;;;4.61;74.12
41312;BME280;27061;41.648;24.568;2024-03-08T09:25:35;85622.22;;;4.04;74.04
41312;BME280;27061;41.648;24.568;2024-03-08T09:28:03;85762.56;;;4.97;74.41
41312;BME280;27061;41.648;24.568;2024-03-08T09:30:32;85670.38;;;4.39;75.68
41312;BME280;27061;41.648;24.568;2024-03-08T09:33:01;85723.34;;;4.74;77.40
41312;BME280;27061;41.648;24.568;2024-03-08T09:35:29;85677.22;;;4.36;75.65
41312;BME280;27061;41.648;24.568;2024-03-08T09:37:57;85625.66;;;4.04;75.67
41312;BME280;27061;41.648;24.568;2024-03-08T09:40:27;85566.56;;;3.67;78.12
41312;BME280;27061;41.648;24.568;2024-03-08T09:42:55;85674.44;;;4.30;74.27
41312;BME280;27061;41.648;24.568;2024-03-08T09:45:24;85677.13;;;4.24;75.30
41312;BME280;27061;41.648;24.568;2024-03-08T09:47:53;85677.13;;;4.24;79.67
41312;BME280;27061;41.648;24.568;2024-03-08T09:50:21;85659.94;;;4.10;80.42
41312;BME280;27061;41.648;24.568;2024-03-08T09:52:49;85748.72;;;4.77;79.56
41312;BME280;27061;41.648;24.568;2024-03-08T09:55:18;85627.00;;;3.99;78.56
41312;BME280;27061;41.648;24.568;2024-03-08T09:57:51;85721.25;;;4.71;80.71
41312;BME280;27061;41.648;24.568;2024-03-08T10:00:38;85728.19;;;4.82;78.99
41312;BME280;27061;41.648;24.568;2024-03-08T10:03:05;85685.63;;;4.71;80.38
41312;BME280;27061;41.648;24.568;2024-03-08T10:05:33;85734.44;;;5.03;76.21
41312;BME280;27061;41.648;24.568;2024-03-08T10:08:00;85713.78;;;4.84;73.88
41312;BME280;27061;41.648;24.568;2024-03-08T10:10:28;85704.88;;;4.85;75.00
41312;BME280;27061;41.648;24.568;2024-03-08T10:12:56;85702.16;;;4.91;78.23
41312;BME280;27061;41.648;24.568;2024-03-08T10:15:24;85682.22;;;4.76;79.22
41312;BME280;27061;41.648;24.568;2024-03-08T10:17:58;85544.69;;;3.67;76.05
41312;BME280;27061;41.648;24.568;2024-03-08T10:20:25;85528.91;;;3.59;76.00
41312;BME280;27061;41.648;24.568;2024-03-08T10:22:55;85715.91;;;4.99;80.83
41312;BME280;27061;41.648;24.568;2024-03-08T10:25:36;85684.31;;;4.86;79.21
41312;BME280;27061;41.648;24.568;2024-03-08T10:28:13;85616.91;;;4.36;82.75
41312;BME280;27061;41.648;24.568;2024-03-08T10:30:47;85649.28;;;4.70;78.27
41312;BME280;27061;41.648;24.568;2024-03-08T10:33:15;85715.34;;;5.29;85.41
41312;BME280;27061;41.648;24.568;2024-03-08T10:35:43;85669.91;;;4.84;85.57
41312;BME280;27061;41.648;24.568;2024-03-08T10:38:16;85706.38;;;5.23;82.60
41312;BME280;27061;41.648;24.568;2024-03-08T10:40:50;85567.59;;;4.38;89.97
41312;BME280;27061;41.648;24.568;2024-03-08T10:43:23;85738.75;;;5.59;77.36
41312;BME280;27061;41.648;24.568;2024-03-08T10:46:37;85737.47;;;5.90;87.66
41312;BME280;27061;41.648;24.568;2024-03-08T10:49:14;85573.19;;;4.73;79.53
41312;BME280;27061;41.648;24.568;2024-03-08T10:51:45;85707.88;;;5.74;73.76
41312;BME280;27061;41.648;24.568;2024-03-08T10:54:14;85707.91;;;6.05;81.25
41312;BME280;27061;41.648;24.568;2024-03-08T10:56:42;85548.56;;;4.97;78.17
41312;BME280;27061;41.648;24.568;2024-03-08T10:59:10;85615.84;;;5.47;69.64
41312;BME280;27061;41.648;24.568;2024-03-08T11:01:38;85705.84;;;6.19;70.07
41312;BME280;27061;41.648;24.568;2024-03-08T11:04:05;85740.91;;;6.33;75.28
41312;BME280;27061;41.648;24.568;2024-03-08T11:12:22;85732.66;;;6.55;69.17
41312;BME280;27061;41.648;24.568;2024-03-08T11:14:54;85677.69;;;6.15;66.47
41312;BME280;27061;41.648;24.568;2024-03-08T11:19:56;85621.34;;;5.53;70.51
41312;BME280;27061;41.648;24.568;2024-03-08T11:22:32;85736.09;;;6.52;66.79
41312;BME280;27061;41.648;24.568;2024-03-08T11:25:08;85694.19;;;6.13;68.80
41312;BME280;27061;41.648;24.568;2024-03-08T11:27:53;85742.28;;;6.56;68.59
41312;BME280;27061;41.648;24.568;2024-03-08T11:30:32;85553.34;;;4.99;68.78
41312;BME280;27061;41.648;24.568;2024-03-08T11:33:03;85685.94;;;6.21;71.19
41312;BME280;27061;41.648;24.568;2024-03-08T11:35:30;85683.19;;;6.17;70.66
41312;BME280;27061;41.648;24.568;2024-03-08T11:37:58;85547.91;;;5.19;71.51
41312;BME280;27061;41.648;24.568;2024-03-08T11:40:27;85726.47;;;6.39;69.60
41312;BME280;27061;41.648;24.568;2024-03-08T11:46:08;85673.56;;;6.14;66.03
41312;BME280;27061;41.648;24.568;2024-03-08T11:48:36;85731.97;;;6.55;67.32
41312;BME280;27061;41.648;24.568;2024-03-08T11:51:03;85681.81;;;6.06;70.36
41312;BME280;27061;41.648;24.568;2024-03-08T11:53:31;85692.13;;;6.21;74.31
41312;BME280;27061;41.648;24.568;2024-03-08T11:56:12;85723.03;;;6.34;67.99
41312;BME280;27061;41.648;24.568;2024-03-08T11:58:55;85699.69;;;6.11;72.08
41312;BME280;27061;41.648;24.568;2024-03-08T12:01:25;85597.28;;;5.31;69.16
41312;BME280;27061;41.648;24.568;2024-03-08T12:03:54;85507.38;;;4.73;69.97
41312;BME280;27061;41.648;24.568;2024-03-08T12:06:22;85740.22;;;6.37;68.96
41312;BME280;27061;41.648;24.568;2024-03-08T12:08:50;85667.38;;;5.99;66.49
41312;BME280;27061;41.648;24.568;2024-03-08T12:11:18;85512.88;;;4.73;70.10
41312;BME280;27061;41.648;24.568;2024-03-08T12:13:52;85690.06;;;6.00;68.71
41312;BME280;27061;41.648;24.568;2024-03-08T12:16:19;85736.78;;;6.50;71.85
41312;BME280;27061;41.648;24.568;2024-03-08T12:18:51;85705.16;;;6.27;70.33
41312;BME280;27061;41.648;24.568;2024-03-08T12:21:20;85635.09;;;5.69;71.04
41312;BME280;27061;41.648;24.568;2024-03-08T12:24:08;85733.31;;;6.64;67.98
41312;BME280;27061;41.648;24.568;2024-03-08T12:26:38;85578.78;;;5.56;67.06
41312;BME280;27061;41.648;24.568;2024-03-08T12:29:16;85629.59;;;5.61;68.37
41312;BME280;27061;41.648;24.568;2024-03-08T12:31:45;85644.03;;;5.96;65.42
41312;BME280;27061;41.648;24.568;2024-03-08T12:34:13;85735.41;;;6.66;66.58
41312;BME280;27061;41.648;24.568;2024-03-08T12:36:48;85727.81;;;6.64;69.37
41312;BME280;27061;41.648;24.568;2024-03-08T12:39:17;85606.91;;;5.73;67.89
41312;BME280;27061;41.648;24.568;2024-03-08T12:41:49;85695.53;;;6.56;66.72
41312;BME280;27061;41.648;24.568;2024-03-08T12:44:20;85659.81;;;6.20;67.96
41312;BME280;27061;41.648;24.568;2024-03-08T12:46:50;85670.09;;;6.42;71.26
41312;BME280;27061;41.648;24.568;2024-03-08T12:49:20;85595.94;;;5.79;70.99
41312;BME280;27061;41.648;24.568;2024-03-08T12:51:50;85710.59;;;6.70;64.14
41312;BME280;27061;41.648;24.568;2024-03-08T12:54:20;85497.81;;;5.17;68.79
41312;BME280;27061;41.648;24.568;2024-03-08T12:56:54;85603.50;;;6.01;74.90
41312;BME280;27061;41.648;24.568;2024-03-08T12:59:22;85668.00;;;6.58;72.66
41312;BME280;27061;41.648;24.568;2024-03-08T13:01:51;85695.47;;;6.75;70.05
41312;BME280;27061;41.648;24.568;2024-03-08T13:04:20;85672.78;;;6.72;71.33
41312;BME280;27061;41.648;24.568;2024-03-08T13:06:49;85636.41;;;6.39;70.37
41312;BME280;27061;41.648;24.568;2024-03-08T13:09:21;85712.56;;;7.14;70.13
41312;BME280;27061;41.648;24.568;2024-03-08T13:11:49;85713.28;;;7.04;70.55
41312;BME280;27061;41.648;24.568;2024-03-08T13:14:17;85711.88;;;7.15;68.42
41312;BME280;27061;41.648;24.568;2024-03-08T13:16:44;85597.91;;;6.41;61.76
41312;BME280;27061;41.648;24.568;2024-03-08T13:19:15;85707.03;;;7.26;63.09
41312;BME280;27061;41.648;24.568;2024-03-08T13:21:43;85685.72;;;7.14;63.73